Time;durP1;ratioP1;P1;durP2;ratioP2;P2;SDS_P1;SDS_P2;PMS_P1;PMS_P2;Temp;Humidity;BMP_temperature;BMP_pressure;BME280_temperature;BME280_humidity;BME280_pressure;Samples;Min_cycle;Max_cycle;Signal;HPM_P1;HPM_P2
2022/01/16 00:00:23;;;;;;;37.88;12.13;;;-3.00;99.90;;;;;;4936134;28;20073;-80
2022/01/16 00:05:29;;;;;;;33.90;11.65;;;-3.80;99.90;;;;;;4953214;28;20031;-83
2022/01/16 00:07:56;;;;;;;34.22;12.20;;;-3.80;99.90;;;;;;4956417;28;20106;-78
2022/01/16 00:10:24;;;;;;;41.72;14.75;;;-2.10;99.90;;;;;;4949505;28;20035;-77
2022/01/16 00:12:52;;;;;;;30.52;10.95;;;-1.80;99.90;;;;;;4940095;28;20503;-88
2022/01/16 00:15:20;;;;;;;34.75;11.93;;;-2.90;99.90;;;;;;4955007;28;20033;-79
2022/01/16 00:20:31;;;;;;;35.33;11.75;;;-2.50;99.90;;;;;;4954118;28;20154;-83
2022/01/16 00:22:58;;;;;;;43.63;12.90;;;-3.90;99.90;;;;;;4954294;28;20026;-80
2022/01/16 00:25:24;;;;;;;34.45;12.32;;;-2.90;99.90;;;;;;4943305;28;20023;-79
2022/01/16 00:27:51;;;;;;;41.22;10.80;;;-2.00;99.90;;;;;;4956311;28;20027;-81
2022/01/16 00:30:17;;;;;;;27.85;10.80;;;-2.30;99.90;;;;;;4958390;28;20077;-78
2022/01/16 00:32:44;;;;;;;32.63;12.20;;;-2.80;99.90;;;;;;4954604;28;20339;-80
2022/01/16 00:35:11;;;;;;;25.45;11.32;;;-2.10;99.90;;;;;;4958272;28;20019;-79
2022/01/16 00:37:40;;;;;;;32.42;9.95;;;-3.90;99.90;;;;;;4952709;28;20035;-79
2022/01/16 00:40:08;;;;;;;33.08;10.93;;;-3.90;99.90;;;;;;4957378;28;20584;-80
2022/01/16 00:42:35;;;;;;;35.10;11.73;;;-3.90;99.90;;;;;;4956986;28;20027;-81
2022/01/16 00:45:01;;;;;;;32.70;10.77;;;-3.90;99.90;;;;;;4950402;28;20033;-78
2022/01/16 00:47:27;;;;;;;47.42;12.00;;;-4.00;99.90;;;;;;4934564;28;20030;-79
2022/01/16 00:49:53;;;;;;;33.55;10.93;;;-4.10;99.90;;;;;;4956143;28;20200;-78
2022/01/16 00:52:19;;;;;;;23.73;8.70;;;-2.60;99.90;;;;;;4937059;28;20577;-79
2022/01/16 00:54:45;;;;;;;29.13;11.02;;;-1.90;99.90;;;;;;4935293;28;20031;-78
2022/01/16 00:57:10;;;;;;;32.78;10.85;;;-4.30;99.90;;;;;;4951872;28;20694;-81
2022/01/16 00:59:36;;;;;;;38.08;11.48;;;-4.20;99.90;;;;;;4952514;28;20034;-80
2022/01/16 01:02:02;;;;;;;24.88;9.35;;;-3.40;99.90;;;;;;4954030;28;20081;-79
2022/01/16 01:04:28;;;;;;;31.10;11.98;;;-4.20;99.90;;;;;;4936689;28;20249;-79
2022/01/16 01:06:55;;;;;;;35.22;11.95;;;-4.20;99.90;;;;;;4953878;28;20023;-78
2022/01/16 01:09:21;;;;;;;29.63;11.45;;;-2.50;99.90;;;;;;4937680;28;20077;-83
2022/01/16 01:11:49;;;;;;;38.35;13.13;;;-2.90;99.90;;;;;;4954288;28;20103;-80
2022/01/16 01:14:25;;;;;;;29.83;10.17;;;-4.40;99.90;;;;;;4937122;28;20022;-80
2022/01/16 01:16:53;;;;;;;29.23;9.90;;;-2.10;99.90;;;;;;4934575;28;20069;-82
2022/01/16 01:19:23;;;;;;;32.90;11.68;;;-4.00;99.90;;;;;;4932092;29;20035;-78
2022/01/16 01:21:49;;;;;;;27.42;10.68;;;-2.50;99.90;;;;;;4932960;29;20039;-80
2022/01/16 01:24:15;;;;;;;28.88;10.65;;;-2.70;99.90;;;;;;4947070;28;20028;-81
2022/01/16 01:29:30;;;;;;;29.25;10.23;;;-4.40;99.90;;;;;;4923774;29;20051;-79
2022/01/16 01:31:57;;;;;;;27.67;10.57;;;-2.50;99.90;;;;;;4931387;29;20058;-78
2022/01/16 01:34:22;;;;;;;29.90;10.57;;;-4.40;99.90;;;;;;4933578;29;20127;-77
2022/01/16 01:36:49;;;;;;;35.65;13.23;;;-4.40;99.90;;;;;;4937313;29;20106;-79
2022/01/16 01:39:20;;;;;;;32.92;11.00;;;-2.70;99.90;;;;;;4930591;29;20031;-80
2022/01/16 01:41:49;;;;;;;29.70;11.07;;;-1.80;99.90;;;;;;4930896;29;20027;-77
2022/01/16 01:52:29;;;;;;;31.23;11.15;;;-4.60;99.90;;;;;;4936166;29;20082;-81
2022/01/16 01:54:55;;;;;;;40.38;12.85;;;-5.40;99.90;;;;;;4933136;29;20795;-79
2022/01/16 01:57:21;;;;;;;36.25;13.48;;;-3.30;99.90;;;;;;4928946;29;20043;-80
2022/01/16 01:59:46;;;;;;;31.25;13.63;;;-4.90;99.90;;;;;;4931055;29;20020;-78
2022/01/16 02:02:12;;;;;;;38.17;12.00;;;-2.80;99.90;;;;;;4932585;29;20033;-81
2022/01/16 02:04:38;;;;;;;34.60;11.25;;;-5.00;99.90;;;;;;4930958;29;20187;-83
2022/01/16 02:07:04;;;;;;;32.75;13.13;;;-5.10;99.90;;;;;;4928872;29;20042;-78
2022/01/16 02:09:31;;;;;;;33.20;13.02;;;-5.20;99.90;;;;;;4930596;29;20046;-79
2022/01/16 02:11:57;;;;;;;27.67;11.73;;;-5.20;99.90;;;;;;4932401;29;20084;-82
2022/01/16 02:14:31;;;;;;;27.65;9.65;;;-5.20;99.90;;;;;;4932009;29;20031;-80
2022/01/16 02:28:25;;;;;;;28.70;11.32;;;-5.10;99.90;;;;;;4948351;28;20093;-80
2022/01/16 02:36:22;;;;;;;;;;;-5.00;99.90;;;;;;4939583;28;20035;-78
2022/01/16 02:38:48;;;;;;;20.13;7.80;;;-5.00;99.90;;;;;;4952123;28;19914;-80
2022/01/16 02:41:15;;;;;;;29.77;10.52;;;-4.90;99.90;;;;;;4949768;28;20019;-77
2022/01/16 02:43:46;;;;;;;32.22;11.38;;;-3.10;99.90;;;;;;4952214;28;20065;-75
2022/01/16 02:48:42;;;;;;;30.00;12.73;;;-4.80;99.90;;;;;;4954374;28;20031;-75
2022/01/16 02:51:08;;;;;;;30.23;10.15;;;-4.70;99.90;;;;;;4951208;28;20571;-77
2022/01/16 02:53:34;;;;;;;25.02;9.85;;;-4.80;99.90;;;;;;4934006;28;20201;-76
2022/01/16 02:56:00;;;;;;;26.40;11.32;;;-4.80;99.90;;;;;;4951021;28;20444;-76
2022/01/16 02:58:26;;;;;;;29.10;9.40;;;-4.80;99.90;;;;;;4931700;28;20030;-78
2022/01/16 03:00:52;;;;;;;22.98;9.52;;;-2.60;99.90;;;;;;4954490;28;20035;-78
2022/01/16 03:03:18;;;;;;;29.30;10.63;;;-3.10;99.90;;;;;;4934492;28;20039;-78
2022/01/16 03:05:43;;;;;;;26.35;9.05;;;-4.90;99.90;;;;;;4931542;28;20107;-75
2022/01/16 03:08:09;;;;;;;32.53;10.38;;;-5.00;99.90;;;;;;4953259;28;20038;-77
2022/01/16 03:13:10;;;;;;;28.25;9.80;;;-5.10;99.90;;;;;;4958394;28;20758;-78
2022/01/16 03:15:38;;;;;;;22.85;9.15;;;-5.00;99.90;;;;;;4951672;28;20260;-77
2022/01/16 03:23:18;;;;;;;19.73;8.55;;;-3.10;99.90;;;;;;4953264;28;20066;-77
2022/01/16 03:25:44;;;;;;;20.73;9.48;;;-4.10;99.90;;;;;;4956914;28;20066;-76
2022/01/16 03:28:10;;;;;;;17.15;8.13;;;-5.20;99.90;;;;;;4937831;28;20454;-77
2022/01/16 03:30:37;;;;;;;24.35;9.63;;;-3.50;99.90;;;;;;4954876;28;20035;-76
2022/01/16 03:33:02;;;;;;;21.92;9.55;;;-4.40;99.90;;;;;;4950263;28;20040;-76
2022/01/16 03:35:28;;;;;;;23.90;8.10;;;-5.50;99.90;;;;;;4952779;28;20027;-77
2022/01/16 03:37:54;;;;;;;31.10;10.43;;;-5.60;99.90;;;;;;4951856;28;20054;-77
2022/01/16 03:40:21;;;;;;;26.13;10.05;;;-5.70;99.90;;;;;;4955997;28;20435;-76
2022/01/16 03:42:48;;;;;;;26.15;10.63;;;-5.90;99.90;;;;;;4953001;28;20041;-79
2022/01/16 03:45:14;;;;;;;30.38;9.60;;;-5.90;99.90;;;;;;4933740;28;20042;-75
2022/01/16 03:47:40;;;;;;;26.42;9.50;;;-6.10;99.90;;;;;;4933874;28;20026;-76
2022/01/16 03:50:07;;;;;;;19.88;10.50;;;-6.20;99.90;;;;;;4957337;28;20027;-75
2022/01/16 03:52:33;;;;;;;26.58;9.05;;;-6.20;99.90;;;;;;4954760;28;20092;-77
2022/01/16 03:54:58;;;;;;;19.70;10.25;;;-4.90;99.90;;;;;;4956356;28;20035;-79
2022/01/16 03:57:25;;;;;;;22.92;9.50;;;-6.40;99.90;;;;;;4935286;28;20175;-78
2022/01/16 03:59:51;;;;;;;21.38;10.18;;;-6.50;99.90;;;;;;4955441;28;20027;-75
2022/01/16 04:02:17;;;;;;;29.33;8.90;;;-6.10;99.90;;;;;;4954854;28;20097;-74
2022/01/16 04:04:43;;;;;;;25.77;8.77;;;-6.70;99.90;;;;;;4951624;28;20035;-78
2022/01/16 04:07:12;;;;;;;20.45;7.43;;;-3.70;99.90;;;;;;4955707;28;20611;-79
2022/01/16 04:09:37;;;;;;;23.10;9.02;;;-6.70;99.90;;;;;;4955006;28;20039;-82
2022/01/16 04:12:04;;;;;;;25.38;8.73;;;-6.80;99.90;;;;;;4956093;28;20031;-78
2022/01/16 04:17:15;;;;;;;23.73;8.85;;;-6.70;99.90;;;;;;4958286;28;20062;-74
2022/01/16 04:19:41;;;;;;;20.20;8.88;;;-6.70;99.90;;;;;;4952693;28;20054;-78
2022/01/16 04:22:06;;;;;;;29.98;10.88;;;-6.70;99.90;;;;;;4954204;28;20039;-78
2022/01/16 04:24:33;;;;;;;25.77;10.23;;;-6.50;99.90;;;;;;4934956;28;20807;-77
2022/01/16 04:26:59;;;;;;;21.48;9.38;;;-6.70;99.90;;;;;;4953680;28;20438;-82
2022/01/16 04:29:25;;;;;;;18.63;8.82;;;-4.40;99.90;;;;;;4949055;28;20507;-76
2022/01/16 04:31:51;;;;;;;17.33;9.43;;;-4.10;99.90;;;;;;4954450;28;20110;-80
2022/01/16 04:34:16;;;;;;;21.65;9.07;;;-6.70;99.90;;;;;;4954329;28;20391;-78
2022/01/16 04:36:42;;;;;;;28.75;10.15;;;-6.60;99.90;;;;;;4953750;28;20054;-76
2022/01/16 04:39:14;;;;;;;16.35;9.05;;;-6.60;99.90;;;;;;4953178;28;20027;-78
2022/01/16 04:44:26;;;;;;;31.02;7.95;;;-5.40;99.90;;;;;;4952459;28;20041;-76
2022/01/16 04:46:52;;;;;;;26.20;10.30;;;-6.50;99.90;;;;;;4951158;28;20049;-77
2022/01/16 04:49:17;;;;;;;22.15;9.05;;;-6.60;99.90;;;;;;4953519;28;20043;-75
2022/01/16 04:51:43;;;;;;;25.25;9.82;;;-6.70;99.90;;;;;;4948316;28;20332;-76
2022/01/16 04:54:09;;;;;;;22.63;9.50;;;-5.80;99.90;;;;;;4950313;28;20066;-75
2022/01/16 04:56:34;;;;;;;24.85;8.82;;;-6.80;99.90;;;;;;4950785;28;20038;-76
2022/01/16 04:59:00;;;;;;;25.05;9.20;;;-6.70;99.90;;;;;;4953836;28;20348;-79
2022/01/16 05:01:27;;;;;;;20.65;7.93;;;-6.70;99.90;;;;;;4934922;28;20035;-79
2022/01/16 05:03:53;;;;;;;20.67;8.73;;;-6.60;99.90;;;;;;4954297;28;20093;-81
2022/01/16 05:06:19;;;;;;;24.40;8.52;;;-6.60;99.90;;;;;;4934431;28;20023;-75
2022/01/16 05:08:45;;;;;;;19.08;8.25;;;-5.30;99.90;;;;;;4953582;28;20129;-79
2022/01/16 05:11:13;;;;;;;20.45;9.30;;;-6.60;99.90;;;;;;4931357;28;20027;-80
2022/01/16 05:18:50;;;;;;;22.27;8.35;;;-6.60;99.90;;;;;;4952038;28;20098;-80
2022/01/16 05:21:17;;;;;;;24.75;10.27;;;-6.60;99.90;;;;;;4952141;28;20039;-76
2022/01/16 05:23:42;;;;;;;26.95;10.43;;;-6.60;99.90;;;;;;4952232;28;20503;-79
2022/01/16 05:26:12;;;;;;;23.83;10.80;;;-6.50;99.90;;;;;;4937598;28;20027;-75
2022/01/16 05:28:38;;;;;;;24.13;12.27;;;-6.60;99.90;;;;;;4934805;28;20491;-79
2022/01/16 05:31:05;;;;;;;27.30;9.50;;;-6.50;99.90;;;;;;4934450;28;20041;-78
2022/01/16 05:33:33;;;;;;;25.38;8.45;;;-6.40;99.90;;;;;;4935288;28;20126;-79
2022/01/16 05:35:59;;;;;;;25.50;10.80;;;-6.50;99.90;;;;;;4934178;28;20407;-79
2022/01/16 05:38:25;;;;;;;22.65;9.20;;;-4.60;99.90;;;;;;4937600;28;20042;-79
2022/01/16 05:40:50;;;;;;;23.40;9.07;;;-5.30;99.90;;;;;;4952636;28;20023;-79
2022/01/16 05:43:16;;;;;;;14.55;5.93;;;-6.40;99.90;;;;;;4954219;28;20034;-78
2022/01/16 05:45:42;;;;;;;27.00;11.75;;;-6.30;99.90;;;;;;4954538;28;20075;-79
2022/01/16 05:48:09;;;;;;;25.42;9.52;;;-6.30;99.90;;;;;;4933199;28;20134;-78
2022/01/16 05:50:35;;;;;;;28.88;9.18;;;-4.20;99.90;;;;;;4957388;28;20109;-78
2022/01/16 05:53:02;;;;;;;23.33;9.73;;;-6.00;99.90;;;;;;4938987;28;20630;-78
2022/01/16 05:55:36;;;;;;;27.75;10.32;;;-6.00;99.90;;;;;;4950850;28;20023;-78
2022/01/16 05:58:06;;;;;;;30.65;9.18;;;-6.00;99.90;;;;;;4937660;28;20030;-78
2022/01/16 06:00:32;;;;;;;26.10;9.48;;;-5.90;99.90;;;;;;4933105;28;20432;-78
2022/01/16 06:02:59;;;;;;;21.67;8.02;;;-6.00;99.90;;;;;;4953992;28;20033;-78
2022/01/16 06:05:24;;;;;;;26.77;9.05;;;-6.10;99.90;;;;;;4972704;28;20026;-79
2022/01/16 06:07:57;;;;;;;24.85;8.30;;;-6.20;99.90;;;;;;4972212;28;20490;-78
2022/01/16 06:10:23;;;;;;;27.42;9.65;;;-6.20;99.90;;;;;;4970893;28;20365;-78
2022/01/16 06:12:51;;;;;;;27.05;8.15;;;-6.10;99.90;;;;;;4972315;28;20073;-78
2022/01/16 06:15:17;;;;;;;26.73;9.43;;;-3.20;99.90;;;;;;4971878;28;20492;-79
2022/01/16 06:17:44;;;;;;;27.88;10.20;;;-6.10;99.90;;;;;;4954145;28;20483;-79
2022/01/16 06:20:10;;;;;;;28.73;9.43;;;-4.00;99.90;;;;;;4971319;28;20051;-78
2022/01/16 06:22:35;;;;;;;23.30;7.90;;;-6.10;99.90;;;;;;4954285;28;20527;-79
2022/01/16 06:25:01;;;;;;;25.52;9.15;;;-6.20;99.90;;;;;;4972080;28;20030;-80
2022/01/16 06:27:27;;;;;;;17.42;7.43;;;-6.20;99.90;;;;;;4971703;28;20421;-79
2022/01/16 06:29:52;;;;;;;19.80;8.52;;;-6.10;99.90;;;;;;4972055;28;20031;-81
2022/01/16 06:32:18;;;;;;;23.77;8.82;;;-6.00;99.90;;;;;;4970464;28;20093;-78
2022/01/16 06:34:44;;;;;;;27.35;10.05;;;-5.90;99.90;;;;;;4971752;28;20018;-77
2022/01/16 06:37:09;;;;;;;29.65;8.73;;;-3.30;99.90;;;;;;4971315;28;20102;-77
2022/01/16 06:39:35;;;;;;;26.40;9.15;;;-6.00;99.90;;;;;;4971639;28;20337;-78
2022/01/16 06:42:01;;;;;;;29.83;11.70;;;-6.00;99.90;;;;;;4970089;28;20042;-79
2022/01/16 06:44:26;;;;;;;31.38;11.13;;;-4.20;99.90;;;;;;4952604;28;20023;-78
2022/01/16 06:46:52;;;;;;;26.05;10.23;;;-4.00;99.90;;;;;;4970024;28;20503;-77
2022/01/16 06:49:18;;;;;;;24.35;10.02;;;-5.80;99.90;;;;;;4969802;28;20059;-80
2022/01/16 06:51:43;;;;;;;31.23;10.70;;;-5.60;99.90;;;;;;4952099;28;20027;-81
2022/01/16 06:54:09;;;;;;;21.80;8.85;;;-3.60;99.90;;;;;;4969879;28;20018;-79
2022/01/16 06:56:35;;;;;;;20.00;8.77;;;-5.80;99.90;;;;;;4964453;28;20110;-81
2022/01/16 06:59:00;;;;;;;27.30;9.20;;;-5.90;99.90;;;;;;4954554;29;20494;-78
2022/01/16 07:01:27;;;;;;;23.02;8.80;;;-5.90;99.90;;;;;;4936868;29;20059;-79
2022/01/16 07:03:56;;;;;;;27.00;10.02;;;-3.20;99.90;;;;;;4952797;29;20028;-78
2022/01/16 07:06:23;;;;;;;36.35;11.82;;;-3.00;99.90;;;;;;4952577;29;20035;-80
2022/01/16 07:08:49;;;;;;;26.88;11.63;;;-6.20;99.90;;;;;;4952258;29;20138;-77
2022/01/16 07:11:15;;;;;;;33.42;11.32;;;-6.30;99.90;;;;;;4952458;29;20098;-79
2022/01/16 07:13:41;;;;;;;37.50;13.38;;;-6.40;99.90;;;;;;4952807;29;20510;-79
2022/01/16 07:16:07;;;;;;;28.42;11.82;;;-6.30;99.90;;;;;;4952246;29;20027;-77
2022/01/16 07:18:33;;;;;;;30.20;10.20;;;-5.50;99.90;;;;;;4956882;28;20431;-77
2022/01/16 07:20:59;;;;;;;30.42;11.95;;;-6.30;99.90;;;;;;4968157;28;20051;-78
2022/01/16 07:23:26;;;;;;;33.80;13.23;;;-6.20;99.90;;;;;;4946049;28;20048;-79
2022/01/16 07:25:52;;;;;;;27.67;9.90;;;-3.50;99.90;;;;;;4962911;28;20569;-78
2022/01/16 07:28:19;;;;;;;32.55;9.43;;;-4.60;99.90;;;;;;4945575;28;20085;-78
2022/01/16 07:30:47;;;;;;;24.65;8.90;;;-5.70;99.90;;;;;;4963693;28;20023;-79
2022/01/16 07:33:13;;;;;;;21.92;8.70;;;-5.70;99.90;;;;;;4943908;28;20015;-78
2022/01/16 07:35:40;;;;;;;26.50;8.63;;;-5.70;99.90;;;;;;4954873;28;20402;-77
2022/01/16 07:38:07;;;;;;;23.40;9.98;;;-3.80;99.90;;;;;;4967295;28;20042;-79
2022/01/16 07:40:34;;;;;;;26.80;9.82;;;-5.80;99.90;;;;;;4963731;28;20018;-79
2022/01/16 07:43:00;;;;;;;25.92;10.07;;;-5.80;99.90;;;;;;4971203;28;20061;-79
2022/01/16 07:45:26;;;;;;;26.70;11.15;;;-5.20;99.90;;;;;;4979610;28;20031;-78
2022/01/16 07:47:52;;;;;;;27.40;11.20;;;-5.60;99.90;;;;;;4973546;28;20031;-78
2022/01/16 07:50:18;;;;;;;32.70;12.20;;;-5.50;99.90;;;;;;4962957;28;20222;-77
2022/01/16 07:52:44;;;;;;;33.70;12.88;;;-5.30;99.90;;;;;;4969592;28;20018;-79
2022/01/16 07:55:10;;;;;;;55.80;15.35;;;-5.10;99.90;;;;;;4961855;28;20046;-78
2022/01/16 07:57:36;;;;;;;36.83;15.35;;;-5.00;99.90;;;;;;4954656;28;20249;-78
2022/01/16 08:00:04;;;;;;;36.00;12.60;;;-4.60;99.90;;;;;;4971637;28;20224;-78
2022/01/16 08:02:31;;;;;;;36.30;11.95;;;-4.80;99.90;;;;;;4949018;29;20031;-79
2022/01/16 08:04:57;;;;;;;23.30;10.65;;;-4.70;99.90;;;;;;4956471;28;20543;-79
2022/01/16 08:07:22;;;;;;;28.52;10.18;;;-3.60;99.90;;;;;;4975671;28;20111;-77
2022/01/16 08:09:48;;;;;;;47.35;13.65;;;-4.50;99.90;;;;;;4974192;28;20531;-77
2022/01/16 08:12:14;;;;;;;32.60;12.35;;;-4.40;99.90;;;;;;4973044;28;20244;-77
2022/01/16 08:14:40;;;;;;;25.13;9.30;;;-4.40;99.90;;;;;;4980917;28;20275;-77
2022/01/16 08:17:06;;;;;;;33.20;9.93;;;-1.30;99.90;;;;;;4967343;28;20085;-77
2022/01/16 08:19:32;;;;;;;26.17;9.13;;;-4.20;99.90;;;;;;4984764;28;20050;-77
2022/01/16 08:21:58;;;;;;;30.20;11.07;;;-4.10;99.90;;;;;;4974826;28;20034;-78
2022/01/16 08:24:24;;;;;;;25.20;9.40;;;-1.70;99.90;;;;;;4975954;28;20015;-77
2022/01/16 08:26:50;;;;;;;28.77;12.13;;;-3.20;99.90;;;;;;4976465;28;20015;-77
2022/01/16 08:29:16;;;;;;;31.52;13.90;;;-2.70;99.90;;;;;;4976004;28;20125;-77
2022/01/16 08:31:42;;;;;;;31.60;11.25;;;-2.40;99.90;;;;;;4974212;28;20030;-76
2022/01/16 08:34:07;;;;;;;32.75;11.10;;;-1.90;99.90;;;;;;4957056;28;20034;-79
2022/01/16 08:36:34;;;;;;;25.25;10.88;;;-2.50;99.90;;;;;;4940711;28;20135;-76
2022/01/16 08:39:00;;;;;;;29.05;11.88;;;-2.60;99.90;;;;;;4973726;28;20038;-77
2022/01/16 08:41:26;;;;;;;32.78;11.30;;;-1.60;99.90;;;;;;4974465;28;20044;-77
2022/01/16 08:43:52;;;;;;;28.08;10.77;;;-3.40;99.90;;;;;;4974533;28;20159;-77
2022/01/16 08:46:19;;;;;;;31.17;10.95;;;-3.60;99.90;;;;;;4974971;28;20089;-77
2022/01/16 08:48:44;;;;;;;32.60;13.02;;;-2.00;99.90;;;;;;4944600;28;20035;-78
2022/01/16 08:51:10;;;;;;;31.05;13.13;;;-2.10;99.90;;;;;;4973209;28;20026;-77
2022/01/16 08:53:36;;;;;;;30.38;11.05;;;-2.20;99.90;;;;;;4946481;28;20264;-77
2022/01/16 08:56:02;;;;;;;17.60;9.05;;;-2.80;99.90;;;;;;4969894;28;20019;-77
2022/01/16 08:58:28;;;;;;;33.28;10.35;;;-3.10;99.90;;;;;;4973454;28;20042;-77
2022/01/16 09:00:54;;;;;;;28.60;11.63;;;-2.10;99.90;;;;;;4974256;28;20026;-77
2022/01/16 09:03:22;;;;;;;35.13;13.25;;;-1.90;99.90;;;;;;4956310;28;20030;-78
2022/01/16 09:05:49;;;;;;;28.77;11.85;;;-2.90;99.90;;;;;;4974170;28;20030;-77
2022/01/16 09:08:15;;;;;;;31.92;13.48;;;-1.80;99.90;;;;;;4972712;28;20058;-77
2022/01/16 09:10:41;;;;;;;31.20;12.20;;;-1.30;99.90;;;;;;4973625;28;20019;-78
2022/01/16 09:13:11;;;;;;;37.17;13.27;;;-2.20;99.90;;;;;;4973806;28;20034;-77
2022/01/16 09:15:39;;;;;;;27.67;10.55;;;-1.90;99.90;;;;;;4973719;28;20026;-76
2022/01/16 09:18:06;;;;;;;25.95;10.82;;;-2.40;99.90;;;;;;4973920;28;20036;-77
2022/01/16 09:20:32;;;;;;;24.77;9.32;;;-3.20;99.90;;;;;;4972938;28;20268;-77
2022/01/16 09:22:59;;;;;;;24.80;12.20;;;-1.80;99.90;;;;;;4972826;28;20027;-77
2022/01/16 09:25:24;;;;;;;30.02;11.45;;;-2.10;99.90;;;;;;4955422;28;20034;-77
2022/01/16 09:27:51;;;;;;;24.83;11.93;;;-1.80;99.90;;;;;;4973424;28;20026;-77
2022/01/16 09:30:18;;;;;;;30.60;13.15;;;-0.60;99.90;;;;;;4976285;28;20035;-78
2022/01/16 09:32:45;;;;;;;35.70;14.95;;;-0.40;99.90;;;;;;4962345;28;20047;-77
2022/01/16 09:35:11;;;;;;;32.08;12.60;;;-0.70;99.90;;;;;;4979760;28;20349;-77
2022/01/16 09:37:37;;;;;;;31.73;12.35;;;-1.40;99.90;;;;;;4978914;28;20207;-77
2022/01/16 09:40:04;;;;;;;29.48;10.52;;;-1.40;99.90;;;;;;4964055;28;20105;-77
2022/01/16 09:42:31;;;;;;;37.42;14.30;;;-1.50;99.90;;;;;;4964619;28;20015;-77
2022/01/16 09:44:57;;;;;;;36.17;14.50;;;-1.50;99.90;;;;;;4964356;28;20089;-77
2022/01/16 09:47:23;;;;;;;32.05;14.50;;;-1.30;99.90;;;;;;4955441;28;20058;-77
2022/01/16 09:49:49;;;;;;;37.40;13.60;;;-1.20;99.90;;;;;;4976272;28;20542;-78
2022/01/16 09:52:15;;;;;;;36.42;15.18;;;-1.00;99.90;;;;;;4973444;28;20034;-78
2022/01/16 09:54:41;;;;;;;34.05;13.13;;;-0.90;99.90;;;;;;4978146;28;20031;-78
2022/01/16 09:57:09;;;;;;;42.67;16.23;;;-0.70;99.90;;;;;;4960697;28;20027;-77
2022/01/16 09:59:35;;;;;;;34.15;15.45;;;-0.70;99.90;;;;;;4975780;28;20031;-77
2022/01/16 10:02:01;;;;;;;40.08;16.90;;;-0.70;99.90;;;;;;4960988;28;20022;-77
2022/01/16 10:04:39;;;;;;;47.83;17.63;;;0.50;99.90;;;;;;4980649;28;20031;-77
2022/01/16 10:07:11;;;;;;;36.45;14.65;;;-0.40;99.90;;;;;;4980513;28;20092;-77
2022/01/16 10:09:40;;;;;;;41.58;16.40;;;1.00;99.90;;;;;;4977944;28;20050;-77
2022/01/16 10:12:15;;;;;;;;;;;-0.30;99.90;;;;;;4963770;28;20029;-77
2022/01/16 10:14:50;;;;;;;38.00;13.23;;;-0.20;99.90;;;;;;4978291;28;19913;-77
2022/01/16 10:17:21;;;;;;;36.63;14.45;;;1.00;99.90;;;;;;4959694;28;20089;-77
2022/01/16 10:20:07;;;;;;;40.78;17.83;;;0.20;99.90;;;;;;4970441;28;20047;-78
2022/01/16 10:22:48;;;;;;;42.22;15.63;;;0.10;99.90;;;;;;4970370;28;20583;-78
2022/01/16 10:25:17;;;;;;;42.80;17.13;;;0.10;99.90;;;;;;4952849;28;20096;-79
2022/01/16 10:27:45;;;;;;;37.25;15.90;;;0.10;99.90;;;;;;4953809;28;20100;-78
2022/01/16 10:30:14;;;;;;;40.35;16.30;;;0.40;99.90;;;;;;4968088;28;20026;-77
2022/01/16 10:32:45;;;;;;;37.55;14.75;;;1.10;99.90;;;;;;4951030;28;20114;-78
2022/01/16 10:35:18;;;;;;;37.70;15.75;;;0.40;99.90;;;;;;4969256;28;20038;-78
2022/01/16 10:37:51;;;;;;;40.42;15.13;;;0.40;99.90;;;;;;4969847;28;20383;-78
2022/01/16 10:40:19;;;;;;;30.13;14.60;;;0.40;99.90;;;;;;4970275;28;20495;-77
2022/01/16 10:42:50;;;;;;;36.58;14.95;;;1.00;99.90;;;;;;4969824;28;20471;-77
2022/01/16 10:45:18;;;;;;;35.80;15.85;;;0.60;99.90;;;;;;4969554;28;20041;-78
2022/01/16 10:47:53;;;;;;;38.20;14.18;;;1.10;99.90;;;;;;4969695;28;20511;-77
2022/01/16 10:50:22;;;;;;;35.75;13.80;;;0.70;99.90;;;;;;4969672;28;20039;-76
2022/01/16 10:52:59;;;;;;;37.08;14.55;;;0.90;99.90;;;;;;4969442;28;20033;-77
2022/01/16 10:55:38;;;;;;;36.45;16.45;;;1.20;99.90;;;;;;4969394;28;20030;-78
2022/01/16 10:58:13;;;;;;;33.33;12.95;;;1.30;99.90;;;;;;4969717;28;20025;-78
2022/01/16 11:00:42;;;;;;;28.92;13.00;;;1.30;99.90;;;;;;4971053;28;20415;-78
2022/01/16 11:03:10;;;;;;;22.13;8.93;;;1.20;99.90;;;;;;4971037;28;20387;-77
2022/01/16 11:05:38;;;;;;;22.73;8.65;;;1.10;99.90;;;;;;4971214;28;20503;-76
2022/01/16 11:08:09;;;;;;;18.48;7.93;;;1.10;99.90;;;;;;4970870;28;20054;-77
2022/01/16 11:10:46;;;;;;;14.90;7.25;;;1.00;99.90;;;;;;4971287;28;20037;-78
2022/01/16 11:13:14;;;;;;;18.30;7.50;;;0.90;99.90;;;;;;4970953;28;20019;-77
2022/01/16 11:15:43;;;;;;;18.85;6.50;;;1.10;99.90;;;;;;4970953;28;20467;-77
2022/01/16 11:18:10;;;;;;;;;;;1.00;99.90;;;;;;4971659;28;20516;-78
2022/01/16 11:20:38;;;;;;;14.20;5.35;;;1.20;99.90;;;;;;4970756;28;19918;-77
2022/01/16 11:25:38;;;;;;;15.30;6.93;;;1.20;99.90;;;;;;4970845;28;20050;-77
2022/01/16 11:28:10;;;;;;;9.45;4.78;;;1.40;99.90;;;;;;4970604;28;20065;-77
2022/01/16 11:30:42;;;;;;;11.50;5.38;;;1.50;99.90;;;;;;4953889;28;20774;-77
2022/01/16 11:33:08;;;;;;;14.80;4.78;;;1.60;99.90;;;;;;4974718;28;20026;-76
2022/01/16 11:35:40;;;;;;;10.35;3.88;;;1.70;99.90;;;;;;4957716;28;20070;-79
2022/01/16 11:38:06;;;;;;;13.20;5.80;;;1.80;99.90;;;;;;4974559;28;20102;-77
2022/01/16 11:40:47;;;;;;;10.88;5.28;;;1.90;99.90;;;;;;4974702;28;20038;-78
2022/01/16 11:43:30;;;;;;;12.57;4.90;;;2.00;99.90;;;;;;4974352;28;20031;-76
2022/01/16 11:46:07;;;;;;;12.35;5.28;;;2.10;99.90;;;;;;4973843;28;20019;-76
2022/01/16 11:48:43;;;;;;;14.52;5.90;;;2.20;99.90;;;;;;4974064;28;20141;-78
2022/01/16 11:51:39;;;;;;;12.80;5.35;;;2.20;99.90;;;;;;4974395;28;20151;-78
2022/01/16 11:54:07;;;;;;;12.80;5.80;;;2.20;99.90;;;;;;4974496;28;20033;-84
2022/01/16 11:56:41;;;;;;;12.88;5.10;;;2.10;99.90;;;;;;4974601;28;20027;-77
2022/01/16 11:59:24;;;;;;;15.80;6.53;;;2.10;99.90;;;;;;4974296;28;20030;-79
2022/01/16 12:02:01;;;;;;;15.38;5.97;;;2.10;99.90;;;;;;4956647;28;20022;-77
2022/01/16 12:04:30;;;;;;;12.95;5.55;;;2.10;99.90;;;;;;4956832;28;20054;-77
2022/01/16 12:06:59;;;;;;;15.05;5.68;;;2.20;99.90;;;;;;4956913;28;20456;-77
2022/01/16 12:10:07;;;;;;;;;;;2.30;99.90;;;;;;4957081;28;20030;-76
2022/01/16 12:12:31;;;;;;;13.15;5.72;;;2.40;99.90;;;;;;4971761;28;19911;-78
2022/01/16 12:15:19;;;;;;;13.75;6.07;;;2.30;99.90;;;;;;4956807;28;20551;-77
2022/01/16 12:17:49;;;;;;;16.25;6.03;;;2.20;99.90;;;;;;4956641;28;20066;-76
2022/01/16 12:20:15;;;;;;;13.55;6.70;;;2.20;99.90;;;;;;4956425;28;20053;-77
2022/01/16 12:22:53;;;;;;;14.90;6.40;;;2.20;99.90;;;;;;4973637;28;20023;-78
2022/01/16 12:25:31;;;;;;;14.50;6.68;;;2.30;99.90;;;;;;4973659;28;20022;-76
2022/01/16 12:28:00;;;;;;;12.68;6.53;;;2.50;99.90;;;;;;4956293;28;20027;-78
2022/01/16 12:30:55;;;;;;;21.42;7.93;;;2.70;99.90;;;;;;4956110;28;20129;-77
2022/01/16 12:33:51;;;;;;;13.57;6.40;;;2.10;99.90;;;;;;4955806;28;20054;-77
2022/01/16 12:36:16;;;;;;;12.10;5.43;;;3.10;99.90;;;;;;4956096;28;20026;-78
2022/01/16 12:38:54;;;;;;;13.75;5.07;;;3.10;99.90;;;;;;4955871;28;20030;-76
2022/01/16 12:41:42;;;;;;;14.23;5.80;;;3.20;99.90;;;;;;4955734;28;20122;-78
2022/01/16 12:44:13;;;;;;;13.82;6.18;;;3.10;99.90;;;;;;4973134;28;20282;-78
2022/01/16 12:46:40;;;;;;;16.08;6.35;;;2.90;99.90;;;;;;4973309;28;20115;-77
2022/01/16 12:49:22;;;;;;;16.75;6.78;;;2.90;99.90;;;;;;4972949;28;20066;-76
2022/01/16 12:51:51;;;;;;;14.13;6.50;;;2.90;99.90;;;;;;4973079;28;20015;-77
2022/01/16 12:54:19;;;;;;;20.42;7.95;;;2.80;99.90;;;;;;4973119;28;20054;-77
2022/01/16 12:56:46;;;;;;;14.60;7.43;;;2.80;99.90;;;;;;4973153;28;20027;-78
2022/01/16 12:59:24;;;;;;;17.02;7.20;;;2.80;99.90;;;;;;4972902;28;20033;-78
2022/01/16 13:01:53;;;;;;;24.13;8.52;;;2.80;99.90;;;;;;4955431;28;20427;-78
2022/01/16 13:04:28;;;;;;;17.23;7.13;;;2.70;99.90;;;;;;4972841;28;20023;-77
2022/01/16 13:06:56;;;;;;;18.35;7.63;;;2.80;99.90;;;;;;4975167;28;20047;-76
2022/01/16 13:09:22;;;;;;;20.20;7.07;;;2.70;99.90;;;;;;4971271;28;20035;-80
2022/01/16 13:11:51;;;;;;;19.63;8.05;;;2.70;99.90;;;;;;4971645;28;20519;-78
2022/01/16 13:14:25;;;;;;;16.35;7.15;;;2.80;99.90;;;;;;4938865;28;20271;-76
2022/01/16 13:16:54;;;;;;;18.25;8.25;;;3.30;99.90;;;;;;4948670;28;20030;-76
2022/01/16 13:19:38;;;;;;;15.17;6.50;;;3.80;99.90;;;;;;4947220;29;20058;-77
2022/01/16 13:22:12;;;;;;;14.48;6.22;;;4.10;99.90;;;;;;4946132;29;20299;-77
2022/01/16 13:24:47;;;;;;;18.02;7.22;;;4.40;99.90;;;;;;4931853;29;20023;-77
2022/01/16 13:27:25;;;;;;;18.40;6.40;;;5.10;99.90;;;;;;4930869;29;20027;-79
2022/01/16 13:29:57;;;;;;;16.00;7.30;;;6.00;99.80;;;;;;4952980;28;20042;-76
2022/01/16 13:32:36;;;;;;;15.00;6.80;;;7.70;99.10;;;;;;4929281;28;20090;-78
2022/01/16 13:35:24;;;;;;;14.73;6.15;;;5.80;95.80;;;;;;4939922;28;20057;-77
2022/01/16 13:37:54;;;;;;;18.45;7.60;;;5.20;95.60;;;;;;4965202;28;20514;-77